sensor_id;sensor_type;location;lat;lon;timestamp;P1;durP1;ratioP1;P2;durP2;ratioP2
537;SDS011;254;48.524;8.926;2022-08-01T00:00:04;3.1;;;1.9;;
537;SDS011;254;48.524;8.926;2022-08-01T00:01:02;2.8;;;1.7;;
537;SDS011;254;48.524;8.926;2022-08-01T00:02:02;2.8;;;1.9;;
537;SDS011;254;48.524;8.926;2022-08-01T00:03:02;2.3;;;1.4;;
537;SDS011;254;48.524;8.926;2022-08-01T00:04:02;3.6;;;1.9;;
537;SDS011;254;48.524;8.926;2022-08-01T00:05:03;2.9;;;1.6;;
537;SDS011;254;48.524;8.926;2022-08-01T00:06:02;2.1;;;1.5;;
537;SDS011;254;48.524;8.926;2022-08-01T00:07:02;2.2;;;1.7;;
537;SDS011;254;48.524;8.926;2022-08-01T00:08:02;2.5;;;1.7;;
537;SDS011;254;48.524;8.926;2022-08-01T00:09:02;3.0;;;1.8;;
537;SDS011;254;48.524;8.926;2022-08-01T00:10:03;3.0;;;1.8;;
537;SDS011;254;48.524;8.926;2022-08-01T00:11:02;2.8;;;1.5;;
537;SDS011;254;48.524;8.926;2022-08-01T00:12:03;2.1;;;1.5;;
537;SDS011;254;48.524;8.926;2022-08-01T00:13:02;3.4;;;1.8;;
537;SDS011;254;48.524;8.926;2022-08-01T00:14:02;3.0;;;1.7;;
537;SDS011;254;48.524;8.926;2022-08-01T00:15:03;2.1;;;1.6;;
537;SDS011;254;48.524;8.926;2022-08-01T00:16:03;3.1;;;1.7;;
537;SDS011;254;48.524;8.926;2022-08-01T00:17:02;3.0;;;1.5;;
537;SDS011;254;48.524;8.926;2022-08-01T00:18:02;2.1;;;1.7;;
537;SDS011;254;48.524;8.926;2022-08-01T00:19:03;2.2;;;1.7;;
537;SDS011;254;48.524;8.926;2022-08-01T00:20:03;3.1;;;1.7;;
537;SDS011;254;48.524;8.926;2022-08-01T00:21:03;2.2;;;1.7;;
537;SDS011;254;48.524;8.926;2022-08-01T00:22:03;2.7;;;1.7;;
537;SDS011;254;48.524;8.926;2022-08-01T00:23:03;2.7;;;1.6;;
537;SDS011;254;48.524;8.926;2022-08-01T00:24:02;2.2;;;1.6;;
537;SDS011;254;48.524;8.926;2022-08-01T00:25:03;2.9;;;1.6;;
537;SDS011;254;48.524;8.926;2022-08-01T00:26:03;2.4;;;1.8;;
537;SDS011;254;48.524;8.926;2022-08-01T00:27:02;2.3;;;1.8;;
537;SDS011;254;48.524;8.926;2022-08-01T00:28:02;2.2;;;1.7;;
537;SDS011;254;48.524;8.926;2022-08-01T00:29:02;3.4;;;1.9;;
537;SDS011;254;48.524;8.926;2022-08-01T00:30:03;3.2;;;1.9;;
537;SDS011;254;48.524;8.926;2022-08-01T00:31:02;3.7;;;1.8;;
537;SDS011;254;48.524;8.926;2022-08-01T00:32:02;2.9;;;1.7;;
537;SDS011;254;48.524;8.926;2022-08-01T00:33:02;4.1;;;1.7;;
537;SDS011;254;48.524;8.926;2022-08-01T00:34:02;4.4;;;1.9;;
537;SDS011;254;48.524;8.926;2022-08-01T00:35:02;2.5;;;1.6;;
537;SDS011;254;48.524;8.926;2022-08-01T00:36:02;2.8;;;1.7;;
537;SDS011;254;48.524;8.926;2022-08-01T00:37:03;3.2;;;1.8;;
537;SDS011;254;48.524;8.926;2022-08-01T00:38:01;3.4;;;1.8;;
537;SDS011;254;48.524;8.926;2022-08-01T00:39:02;3.2;;;1.6;;
537;SDS011;254;48.524;8.926;2022-08-01T00:40:03;4.1;;;1.9;;
537;SDS011;254;48.524;8.926;2022-08-01T00:41:02;3.2;;;1.7;;
537;SDS011;254;48.524;8.926;2022-08-01T00:42:05;2.5;;;1.8;;
537;SDS011;254;48.524;8.926;2022-08-01T00:43:02;3.9;;;1.7;;
537;SDS011;254;48.524;8.926;2022-08-01T00:44:03;3.3;;;1.9;;
537;SDS011;254;48.524;8.926;2022-08-01T00:45:02;2.4;;;1.8;;
537;SDS011;254;48.524;8.926;2022-08-01T00:46:02;2.5;;;1.8;;
537;SDS011;254;48.524;8.926;2022-08-01T00:47:02;2.6;;;1.8;;
537;SDS011;254;48.524;8.926;2022-08-01T00:48:02;2.6;;;1.9;;
537;SDS011;254;48.524;8.926;2022-08-01T00:49:02;2.5;;;1.7;;
537;SDS011;254;48.524;8.926;2022-08-01T00:50:03;4.2;;;1.8;;
537;SDS011;254;48.524;8.926;2022-08-01T00:51:03;4.1;;;1.8;;
537;SDS011;254;48.524;8.926;2022-08-01T00:52:03;2.2;;;1.9;;
537;SDS011;254;48.524;8.926;2022-08-01T00:53:02;4.2;;;1.7;;
537;SDS011;254;48.524;8.926;2022-08-01T00:54:02;6.0;;;1.8;;
537;SDS011;254;48.524;8.926;2022-08-01T00:55:03;3.0;;;1.9;;
537;SDS011;254;48.524;8.926;2022-08-01T00:56:04;2.8;;;1.7;;
537;SDS011;254;48.524;8.926;2022-08-01T00:57:02;3.0;;;2.0;;
537;SDS011;254;48.524;8.926;2022-08-01T00:58:03;3.0;;;1.8;;
537;SDS011;254;48.524;8.926;2022-08-01T00:59:02;3.3;;;1.8;;
537;SDS011;254;48.524;8.926;2022-08-01T01:00:03;2.8;;;1.9;;
537;SDS011;254;48.524;8.926;2022-08-01T01:01:02;2.9;;;1.8;;
537;SDS011;254;48.524;8.926;2022-08-01T01:02:02;2.4;;;1.8;;
537;SDS011;254;48.524;8.926;2022-08-01T01:03:03;2.7;;;2.0;;
537;SDS011;254;48.524;8.926;2022-08-01T01:04:03;4.1;;;1.9;;
537;SDS011;254;48.524;8.926;2022-08-01T01:05:03;4.5;;;1.8;;
537;SDS011;254;48.524;8.926;2022-08-01T01:06:07;2.3;;;1.9;;
537;SDS011;254;48.524;8.926;2022-08-01T01:07:04;2.4;;;1.8;;
537;SDS011;254;48.524;8.926;2022-08-01T01:08:03;3.5;;;1.8;;
537;SDS011;254;48.524;8.926;2022-08-01T01:09:08;2.3;;;1.7;;
537;SDS011;254;48.524;8.926;2022-08-01T01:10:03;2.9;;;1.9;;
537;SDS011;254;48.524;8.926;2022-08-01T01:11:04;4.0;;;2.0;;
537;SDS011;254;48.524;8.926;2022-08-01T01:12:05;2.5;;;1.8;;
537;SDS011;254;48.524;8.926;2022-08-01T01:13:04;2.4;;;1.9;;
537;SDS011;254;48.524;8.926;2022-08-01T01:14:04;3.2;;;1.9;;
537;SDS011;254;48.524;8.926;2022-08-01T01:15:04;2.4;;;1.9;;
537;SDS011;254;48.524;8.926;2022-08-01T01:16:05;3.1;;;1.8;;
537;SDS011;254;48.524;8.926;2022-08-01T01:17:03;2.2;;;1.7;;
537;SDS011;254;48.524;8.926;2022-08-01T01:18:03;3.6;;;2.2;;
537;SDS011;254;48.524;8.926;2022-08-01T01:19:02;3.4;;;1.9;;
537;SDS011;254;48.524;8.926;2022-08-01T01:20:02;2.4;;;2.0;;
537;SDS011;254;48.524;8.926;2022-08-01T01:21:05;2.4;;;1.7;;
537;SDS011;254;48.524;8.926;2022-08-01T01:22:20;2.6;;;1.7;;
537;SDS011;254;48.524;8.926;2022-08-01T01:23:09;2.7;;;1.8;;
537;SDS011;254;48.524;8.926;2022-08-01T01:24:04;2.5;;;2.1;;
537;SDS011;254;48.524;8.926;2022-08-01T01:25:08;2.9;;;1.8;;
537;SDS011;254;48.524;8.926;2022-08-01T01:26:19;2.3;;;1.8;;
537;SDS011;254;48.524;8.926;2022-08-01T01:27:05;2.6;;;1.9;;
537;SDS011;254;48.524;8.926;2022-08-01T01:28:06;3.6;;;2.2;;
537;SDS011;254;48.524;8.926;2022-08-01T01:29:05;3.3;;;1.9;;
537;SDS011;254;48.524;8.926;2022-08-01T01:30:03;2.4;;;1.8;;
537;SDS011;254;48.524;8.926;2022-08-01T01:31:02;3.3;;;2.0;;
537;SDS011;254;48.524;8.926;2022-08-01T01:32:04;2.2;;;1.9;;
537;SDS011;254;48.524;8.926;2022-08-01T01:33:02;3.9;;;2.0;;
537;SDS011;254;48.524;8.926;2022-08-01T01:34:02;2.7;;;1.9;;
537;SDS011;254;48.524;8.926;2022-08-01T01:35:03;3.6;;;2.1;;
537;SDS011;254;48.524;8.926;2022-08-01T01:36:03;2.2;;;1.9;;
537;SDS011;254;48.524;8.926;2022-08-01T01:37:02;3.4;;;2.1;;
537;SDS011;254;48.524;8.926;2022-08-01T01:38:05;3.0;;;2.0;;
537;SDS011;254;48.524;8.926;2022-08-01T01:39:02;2.7;;;2.0;;
537;SDS011;254;48.524;8.926;2022-08-01T01:40:03;2.1;;;1.8;;
537;SDS011;254;48.524;8.926;2022-08-01T01:41:02;3.0;;;2.2;;
537;SDS011;254;48.524;8.926;2022-08-01T01:42:03;3.1;;;2.1;;
537;SDS011;254;48.524;8.926;2022-08-01T01:43:03;2.5;;;2.1;;
537;SDS011;254;48.524;8.926;2022-08-01T01:44:03;2.6;;;2.1;;
537;SDS011;254;48.524;8.926;2022-08-01T01:45:03;3.6;;;2.1;;
537;SDS011;254;48.524;8.926;2022-08-01T01:46:02;3.1;;;2.1;;
537;SDS011;254;48.524;8.926;2022-08-01T01:47:03;4.4;;;2.3;;
537;SDS011;254;48.524;8.926;2022-08-01T01:48:03;2.9;;;2.0;;
537;SDS011;254;48.524;8.926;2022-08-01T01:49:04;3.4;;;2.0;;
537;SDS011;254;48.524;8.926;2022-08-01T01:50:02;3.4;;;2.1;;
537;SDS011;254;48.524;8.926;2022-08-01T01:51:02;2.8;;;2.1;;
537;SDS011;254;48.524;8.926;2022-08-01T01:52:03;2.7;;;2.0;;
537;SDS011;254;48.524;8.926;2022-08-01T01:53:02;4.1;;;2.4;;
537;SDS011;254;48.524;8.926;2022-08-01T01:54:02;2.5;;;2.1;;
537;SDS011;254;48.524;8.926;2022-08-01T01:55:04;2.6;;;2.2;;
537;SDS011;254;48.524;8.926;2022-08-01T01:56:04;2.5;;;1.9;;
537;SDS011;254;48.524;8.926;2022-08-01T01:57:05;2.9;;;1.9;;
537;SDS011;254;48.524;8.926;2022-08-01T01:58:02;3.1;;;2.0;;
537;SDS011;254;48.524;8.926;2022-08-01T01:59:02;3.0;;;2.0;;
537;SDS011;254;48.524;8.926;2022-08-01T02:00:02;2.6;;;1.8;;
537;SDS011;254;48.524;8.926;2022-08-01T02:01:03;5.5;;;2.2;;
537;SDS011;254;48.524;8.926;2022-08-01T02:02:03;3.1;;;1.9;;
537;SDS011;254;48.524;8.926;2022-08-01T02:03:03;2.8;;;1.8;;
537;SDS011;254;48.524;8.926;2022-08-01T02:04:02;2.4;;;1.8;;
537;SDS011;254;48.524;8.926;2022-08-01T02:05:02;3.5;;;2.0;;
537;SDS011;254;48.524;8.926;2022-08-01T02:06:02;4.7;;;1.8;;
537;SDS011;254;48.524;8.926;2022-08-01T02:07:02;3.9;;;2.0;;
537;SDS011;254;48.524;8.926;2022-08-01T02:08:02;2.3;;;1.9;;
537;SDS011;254;48.524;8.926;2022-08-01T02:09:02;3.3;;;2.0;;
537;SDS011;254;48.524;8.926;2022-08-01T02:10:03;3.5;;;2.0;;
537;SDS011;254;48.524;8.926;2022-08-01T02:11:02;2.9;;;2.0;;
537;SDS011;254;48.524;8.926;2022-08-01T02:12:04;5.4;;;2.1;;
537;SDS011;254;48.524;8.926;2022-08-01T02:13:02;2.9;;;2.1;;
537;SDS011;254;48.524;8.926;2022-08-01T02:14:03;3.6;;;1.9;;
537;SDS011;254;48.524;8.926;2022-08-01T02:15:03;2.7;;;1.7;;
537;SDS011;254;48.524;8.926;2022-08-01T02:16:02;2.9;;;2.0;;
537;SDS011;254;48.524;8.926;2022-08-01T02:17:02;2.6;;;2.1;;
537;SDS011;254;48.524;8.926;2022-08-01T02:18:02;4.6;;;1.9;;
537;SDS011;254;48.524;8.926;2022-08-01T02:19:02;2.6;;;2.0;;
537;SDS011;254;48.524;8.926;2022-08-01T02:20:03;2.4;;;2.1;;
537;SDS011;254;48.524;8.926;2022-08-01T02:21:03;4.2;;;2.0;;
537;SDS011;254;48.524;8.926;2022-08-01T02:22:04;2.9;;;1.8;;
537;SDS011;254;48.524;8.926;2022-08-01T02:23:05;2.3;;;1.9;;
537;SDS011;254;48.524;8.926;2022-08-01T02:24:03;2.7;;;2.0;;
537;SDS011;254;48.524;8.926;2022-08-01T02:25:03;2.6;;;2.2;;
537;SDS011;254;48.524;8.926;2022-08-01T02:26:03;2.3;;;1.9;;
537;SDS011;254;48.524;8.926;2022-08-01T02:27:04;2.5;;;2.1;;
537;SDS011;254;48.524;8.926;2022-08-01T02:28:03;3.2;;;2.0;;
537;SDS011;254;48.524;8.926;2022-08-01T02:29:05;2.8;;;2.0;;
537;SDS011;254;48.524;8.926;2022-08-01T02:30:03;2.7;;;2.1;;
537;SDS011;254;48.524;8.926;2022-08-01T02:31:02;2.8;;;2.0;;
537;SDS011;254;48.524;8.926;2022-08-01T02:32:03;4.9;;;2.0;;
537;SDS011;254;48.524;8.926;2022-08-01T02:33:03;2.7;;;2.0;;
537;SDS011;254;48.524;8.926;2022-08-01T02:34:04;3.3;;;1.9;;
537;SDS011;254;48.524;8.926;2022-08-01T02:35:02;2.7;;;1.9;;
537;SDS011;254;48.524;8.926;2022-08-01T02:36:03;3.2;;;2.1;;
537;SDS011;254;48.524;8.926;2022-08-01T02:37:02;3.0;;;2.2;;
537;SDS011;254;48.524;8.926;2022-08-01T02:38:03;2.7;;;2.0;;
537;SDS011;254;48.524;8.926;2022-08-01T02:39:03;2.9;;;2.1;;
537;SDS011;254;48.524;8.926;2022-08-01T02:40:03;2.7;;;2.1;;
537;SDS011;254;48.524;8.926;2022-08-01T02:41:03;2.8;;;2.1;;
537;SDS011;254;48.524;8.926;2022-08-01T02:42:02;3.1;;;2.3;;
537;SDS011;254;48.524;8.926;2022-08-01T02:43:02;4.1;;;2.1;;
537;SDS011;254;48.524;8.926;2022-08-01T02:44:03;2.8;;;1.9;;
537;SDS011;254;48.524;8.926;2022-08-01T02:45:02;3.8;;;2.2;;
537;SDS011;254;48.524;8.926;2022-08-01T02:46:02;2.4;;;2.1;;
537;SDS011;254;48.524;8.926;2022-08-01T02:47:03;3.2;;;1.9;;
537;SDS011;254;48.524;8.926;2022-08-01T02:48:04;2.6;;;2.2;;
537;SDS011;254;48.524;8.926;2022-08-01T02:49:02;3.1;;;2.0;;
537;SDS011;254;48.524;8.926;2022-08-01T02:50:02;5.9;;;2.2;;
537;SDS011;254;48.524;8.926;2022-08-01T02:51:02;3.5;;;2.2;;
537;SDS011;254;48.524;8.926;2022-08-01T02:52:04;2.4;;;2.1;;
537;SDS011;254;48.524;8.926;2022-08-01T02:53:03;2.8;;;2.3;;
537;SDS011;254;48.524;8.926;2022-08-01T02:54:03;3.4;;;2.1;;
537;SDS011;254;48.524;8.926;2022-08-01T02:55:02;5.4;;;2.6;;
537;SDS011;254;48.524;8.926;2022-08-01T02:56:03;4.7;;;3.0;;
537;SDS011;254;48.524;8.926;2022-08-01T02:57:03;4.9;;;4.4;;
537;SDS011;254;48.524;8.926;2022-08-01T02:58:02;3.6;;;3.1;;
537;SDS011;254;48.524;8.926;2022-08-01T02:59:03;3.2;;;2.3;;
537;SDS011;254;48.524;8.926;2022-08-01T03:00:02;2.6;;;2.3;;
537;SDS011;254;48.524;8.926;2022-08-01T03:01:03;3.3;;;2.2;;
537;SDS011;254;48.524;8.926;2022-08-01T03:02:02;2.9;;;2.1;;
537;SDS011;254;48.524;8.926;2022-08-01T03:03:03;2.6;;;2.2;;
537;SDS011;254;48.524;8.926;2022-08-01T03:04:02;3.1;;;2.3;;
537;SDS011;254;48.524;8.926;2022-08-01T03:05:02;3.1;;;2.1;;
537;SDS011;254;48.524;8.926;2022-08-01T03:06:02;3.1;;;2.1;;
537;SDS011;254;48.524;8.926;2022-08-01T03:07:02;3.4;;;2.5;;
537;SDS011;254;48.524;8.926;2022-08-01T03:08:02;2.9;;;2.1;;
537;SDS011;254;48.524;8.926;2022-08-01T03:09:03;3.4;;;2.2;;
537;SDS011;254;48.524;8.926;2022-08-01T03:10:02;2.8;;;2.4;;
537;SDS011;254;48.524;8.926;2022-08-01T03:11:02;3.0;;;2.4;;
537;SDS011;254;48.524;8.926;2022-08-01T03:12:04;2.8;;;2.1;;
537;SDS011;254;48.524;8.926;2022-08-01T03:13:03;4.6;;;2.2;;
537;SDS011;254;48.524;8.926;2022-08-01T03:14:04;2.6;;;2.3;;
537;SDS011;254;48.524;8.926;2022-08-01T03:15:03;3.5;;;2.1;;
537;SDS011;254;48.524;8.926;2022-08-01T03:16:03;3.2;;;2.5;;
537;SDS011;254;48.524;8.926;2022-08-01T03:17:02;4.0;;;2.4;;
537;SDS011;254;48.524;8.926;2022-08-01T03:18:02;4.0;;;2.1;;
537;SDS011;254;48.524;8.926;2022-08-01T03:19:03;4.4;;;2.4;;
537;SDS011;254;48.524;8.926;2022-08-01T03:20:03;4.2;;;2.5;;
537;SDS011;254;48.524;8.926;2022-08-01T03:21:02;3.0;;;2.2;;
537;SDS011;254;48.524;8.926;2022-08-01T03:22:03;3.2;;;2.3;;
537;SDS011;254;48.524;8.926;2022-08-01T03:23:03;3.6;;;2.4;;
537;SDS011;254;48.524;8.926;2022-08-01T03:24:02;2.9;;;2.4;;
537;SDS011;254;48.524;8.926;2022-08-01T03:25:03;3.9;;;2.2;;
537;SDS011;254;48.524;8.926;2022-08-01T03:26:02;2.8;;;2.4;;
537;SDS011;254;48.524;8.926;2022-08-01T03:27:03;3.6;;;2.4;;
537;SDS011;254;48.524;8.926;2022-08-01T03:28:03;3.3;;;2.1;;
537;SDS011;254;48.524;8.926;2022-08-01T03:29:04;2.4;;;2.2;;
537;SDS011;254;48.524;8.926;2022-08-01T03:30:03;2.6;;;2.2;;
537;SDS011;254;48.524;8.926;2022-08-01T03:31:02;2.6;;;2.2;;
537;SDS011;254;48.524;8.926;2022-08-01T03:32:03;3.7;;;2.1;;
537;SDS011;254;48.524;8.926;2022-08-01T03:33:02;3.2;;;2.3;;
537;SDS011;254;48.524;8.926;2022-08-01T03:34:02;2.8;;;2.3;;
537;SDS011;254;48.524;8.926;2022-08-01T03:35:02;3.5;;;2.2;;
537;SDS011;254;48.524;8.926;2022-08-01T03:36:02;3.0;;;2.3;;
537;SDS011;254;48.524;8.926;2022-08-01T03:37:02;2.6;;;2.3;;
537;SDS011;254;48.524;8.926;2022-08-01T03:38:02;3.1;;;2.4;;
537;SDS011;254;48.524;8.926;2022-08-01T03:39:03;4.0;;;2.4;;
537;SDS011;254;48.524;8.926;2022-08-01T03:40:03;2.9;;;2.4;;
537;SDS011;254;48.524;8.926;2022-08-01T03:41:13;3.1;;;2.6;;
537;SDS011;254;48.524;8.926;2022-08-01T03:42:04;4.4;;;2.6;;
537;SDS011;254;48.524;8.926;2022-08-01T03:43:04;8.3;;;3.0;;
537;SDS011;254;48.524;8.926;2022-08-01T03:44:04;3.1;;;2.7;;
537;SDS011;254;48.524;8.926;2022-08-01T03:45:05;3.3;;;2.2;;
537;SDS011;254;48.524;8.926;2022-08-01T03:46:04;3.8;;;2.4;;
537;SDS011;254;48.524;8.926;2022-08-01T03:47:04;2.6;;;2.3;;
537;SDS011;254;48.524;8.926;2022-08-01T03:48:05;3.2;;;2.3;;
537;SDS011;254;48.524;8.926;2022-08-01T03:49:03;3.3;;;2.3;;
537;SDS011;254;48.524;8.926;2022-08-01T03:50:03;2.6;;;2.4;;
537;SDS011;254;48.524;8.926;2022-08-01T03:51:02;4.1;;;2.3;;
537;SDS011;254;48.524;8.926;2022-08-01T03:52:02;2.9;;;2.4;;
537;SDS011;254;48.524;8.926;2022-08-01T03:53:02;3.2;;;2.2;;
537;SDS011;254;48.524;8.926;2022-08-01T03:54:02;3.1;;;2.3;;
537;SDS011;254;48.524;8.926;2022-08-01T03:55:03;3.8;;;2.6;;
537;SDS011;254;48.524;8.926;2022-08-01T03:56:02;4.2;;;2.8;;
537;SDS011;254;48.524;8.926;2022-08-01T03:57:02;4.4;;;2.6;;
537;SDS011;254;48.524;8.926;2022-08-01T03:58:02;2.7;;;2.4;;
537;SDS011;254;48.524;8.926;2022-08-01T03:59:03;4.6;;;2.3;;
537;SDS011;254;48.524;8.926;2022-08-01T04:00:03;4.3;;;2.6;;
537;SDS011;254;48.524;8.926;2022-08-01T04:01:03;3.2;;;2.4;;
537;SDS011;254;48.524;8.926;2022-08-01T04:02:02;3.0;;;2.5;;
537;SDS011;254;48.524;8.926;2022-08-01T04:03:02;4.0;;;2.5;;
537;SDS011;254;48.524;8.926;2022-08-01T04:04:02;3.4;;;2.2;;
537;SDS011;254;48.524;8.926;2022-08-01T04:05:02;2.9;;;2.5;;
537;SDS011;254;48.524;8.926;2022-08-01T04:06:03;3.3;;;2.6;;
537;SDS011;254;48.524;8.926;2022-08-01T04:07:02;4.1;;;2.4;;
537;SDS011;254;48.524;8.926;2022-08-01T04:08:02;3.4;;;2.7;;
537;SDS011;254;48.524;8.926;2022-08-01T04:09:03;3.9;;;2.9;;
537;SDS011;254;48.524;8.926;2022-08-01T04:10:03;4.9;;;2.9;;
537;SDS011;254;48.524;8.926;2022-08-01T04:11:02;3.4;;;3.1;;
537;SDS011;254;48.524;8.926;2022-08-01T04:12:02;5.3;;;3.2;;
537;SDS011;254;48.524;8.926;2022-08-01T04:13:03;6.0;;;3.4;;
537;SDS011;254;48.524;8.926;2022-08-01T04:14:01;4.0;;;3.2;;
537;SDS011;254;48.524;8.926;2022-08-01T04:15:02;4.6;;;3.4;;
537;SDS011;254;48.524;8.926;2022-08-01T04:16:02;6.0;;;3.4;;
537;SDS011;254;48.524;8.926;2022-08-01T04:17:02;4.1;;;3.5;;
537;SDS011;254;48.524;8.926;2022-08-01T04:18:02;5.1;;;3.2;;
537;SDS011;254;48.524;8.926;2022-08-01T04:19:02;3.8;;;3.4;;
537;SDS011;254;48.524;8.926;2022-08-01T04:20:03;5.0;;;3.2;;
537;SDS011;254;48.524;8.926;2022-08-01T04:21:02;3.4;;;2.9;;
537;SDS011;254;48.524;8.926;2022-08-01T04:22:02;3.4;;;2.7;;
537;SDS011;254;48.524;8.926;2022-08-01T04:23:03;4.8;;;2.8;;
537;SDS011;254;48.524;8.926;2022-08-01T04:24:03;3.5;;;2.8;;
537;SDS011;254;48.524;8.926;2022-08-01T04:25:04;4.3;;;3.1;;
537;SDS011;254;48.524;8.926;2022-08-01T04:26:03;7.8;;;3.0;;
537;SDS011;254;48.524;8.926;2022-08-01T04:27:04;4.2;;;3.0;;
537;SDS011;254;48.524;8.926;2022-08-01T04:28:03;4.9;;;3.2;;
537;SDS011;254;48.524;8.926;2022-08-01T04:29:03;3.0;;;2.6;;
537;SDS011;254;48.524;8.926;2022-08-01T04:30:02;5.1;;;3.3;;
537;SDS011;254;48.524;8.926;2022-08-01T04:31:02;3.8;;;3.4;;
537;SDS011;254;48.524;8.926;2022-08-01T04:32:02;4.5;;;3.3;;
537;SDS011;254;48.524;8.926;2022-08-01T04:33:02;4.5;;;3.4;;
537;SDS011;254;48.524;8.926;2022-08-01T04:34:03;4.3;;;2.9;;
537;SDS011;254;48.524;8.926;2022-08-01T04:35:03;4.5;;;3.2;;
537;SDS011;254;48.524;8.926;2022-08-01T04:36:02;3.5;;;3.2;;
537;SDS011;254;48.524;8.926;2022-08-01T04:37:03;3.8;;;2.8;;
537;SDS011;254;48.524;8.926;2022-08-01T04:38:02;4.4;;;2.9;;
537;SDS011;254;48.524;8.926;2022-08-01T04:39:02;3.8;;;3.4;;
537;SDS011;254;48.524;8.926;2022-08-01T04:40:03;4.3;;;3.4;;
537;SDS011;254;48.524;8.926;2022-08-01T04:41:02;5.2;;;3.3;;
537;SDS011;254;48.524;8.926;2022-08-01T04:42:02;4.8;;;3.3;;
537;SDS011;254;48.524;8.926;2022-08-01T04:43:02;3.3;;;3.0;;
537;SDS011;254;48.524;8.926;2022-08-01T04:44:03;5.7;;;3.0;;
537;SDS011;254;48.524;8.926;2022-08-01T04:45:03;4.0;;;2.9;;
537;SDS011;254;48.524;8.926;2022-08-01T04:46:02;4.0;;;2.8;;
537;SDS011;254;48.524;8.926;2022-08-01T04:47:03;3.6;;;2.9;;
537;SDS011;254;48.524;8.926;2022-08-01T04:48:03;5.3;;;3.0;;
537;SDS011;254;48.524;8.926;2022-08-01T04:49:02;2.8;;;2.5;;
537;SDS011;254;48.524;8.926;2022-08-01T04:50:04;4.6;;;3.0;;
537;SDS011;254;48.524;8.926;2022-08-01T04:51:03;3.4;;;2.6;;
537;SDS011;254;48.524;8.926;2022-08-01T04:52:03;5.3;;;2.7;;
537;SDS011;254;48.524;8.926;2022-08-01T04:53:02;4.1;;;2.9;;
537;SDS011;254;48.524;8.926;2022-08-01T04:54:02;3.7;;;3.0;;
537;SDS011;254;48.524;8.926;2022-08-01T04:55:03;4.0;;;2.8;;
537;SDS011;254;48.524;8.926;2022-08-01T04:56:02;3.9;;;2.8;;
537;SDS011;254;48.524;8.926;2022-08-01T04:57:05;3.0;;;2.7;;
537;SDS011;254;48.524;8.926;2022-08-01T04:58:03;3.8;;;2.8;;
537;SDS011;254;48.524;8.926;2022-08-01T04:59:03;4.1;;;2.9;;
537;SDS011;254;48.524;8.926;2022-08-01T05:00:03;3.9;;;3.0;;
537;SDS011;254;48.524;8.926;2022-08-01T05:01:02;2.8;;;2.6;;
537;SDS011;254;48.524;8.926;2022-08-01T05:02:02;3.2;;;2.7;;
537;SDS011;254;48.524;8.926;2022-08-01T05:03:02;3.3;;;2.5;;
537;SDS011;254;48.524;8.926;2022-08-01T05:04:02;3.1;;;2.4;;
537;SDS011;254;48.524;8.926;2022-08-01T05:05:03;3.2;;;2.8;;
537;SDS011;254;48.524;8.926;2022-08-01T05:06:03;2.7;;;2.5;;
537;SDS011;254;48.524;8.926;2022-08-01T05:07:02;4.2;;;2.5;;
537;SDS011;254;48.524;8.926;2022-08-01T05:08:02;3.9;;;2.8;;
537;SDS011;254;48.524;8.926;2022-08-01T05:09:03;2.7;;;2.5;;
537;SDS011;254;48.524;8.926;2022-08-01T05:10:03;3.0;;;2.4;;
537;SDS011;254;48.524;8.926;2022-08-01T05:11:02;2.7;;;2.5;;
537;SDS011;254;48.524;8.926;2022-08-01T05:12:02;3.5;;;2.8;;
537;SDS011;254;48.524;8.926;2022-08-01T05:13:02;5.2;;;2.7;;
537;SDS011;254;48.524;8.926;2022-08-01T05:14:02;4.2;;;2.8;;
537;SDS011;254;48.524;8.926;2022-08-01T05:15:02;3.3;;;3.0;;
537;SDS011;254;48.524;8.926;2022-08-01T05:16:02;3.7;;;2.7;;
537;SDS011;254;48.524;8.926;2022-08-01T05:17:03;4.0;;;2.9;;
537;SDS011;254;48.524;8.926;2022-08-01T05:18:02;4.2;;;2.6;;
537;SDS011;254;48.524;8.926;2022-08-01T05:19:03;3.2;;;2.8;;
537;SDS011;254;48.524;8.926;2022-08-01T05:20:02;3.8;;;2.6;;
537;SDS011;254;48.524;8.926;2022-08-01T05:21:02;3.7;;;2.8;;
537;SDS011;254;48.524;8.926;2022-08-01T05:22:06;3.0;;;2.7;;
537;SDS011;254;48.524;8.926;2022-08-01T05:23:03;3.5;;;2.6;;
537;SDS011;254;48.524;8.926;2022-08-01T05:24:03;2.6;;;2.4;;
537;SDS011;254;48.524;8.926;2022-08-01T05:25:02;4.9;;;3.0;;
537;SDS011;254;48.524;8.926;2022-08-01T05:26:03;3.9;;;2.8;;
537;SDS011;254;48.524;8.926;2022-08-01T05:27:02;3.2;;;2.6;;
537;SDS011;254;48.524;8.926;2022-08-01T05:28:02;3.9;;;2.9;;
537;SDS011;254;48.524;8.926;2022-08-01T05:29:03;5.3;;;2.8;;
537;SDS011;254;48.524;8.926;2022-08-01T05:30:02;3.1;;;2.7;;
537;SDS011;254;48.524;8.926;2022-08-01T05:31:02;3.6;;;2.6;;
537;SDS011;254;48.524;8.926;2022-08-01T05:32:04;3.0;;;2.7;;
537;SDS011;254;48.524;8.926;2022-08-01T05:33:02;2.9;;;2.6;;
537;SDS011;254;48.524;8.926;2022-08-01T05:34:03;3.0;;;2.4;;
537;SDS011;254;48.524;8.926;2022-08-01T05:35:03;3.7;;;2.6;;
537;SDS011;254;48.524;8.926;2022-08-01T05:36:02;3.0;;;2.5;;
537;SDS011;254;48.524;8.926;2022-08-01T05:37:03;3.3;;;2.6;;
537;SDS011;254;48.524;8.926;2022-08-01T05:38:01;2.6;;;2.3;;
537;SDS011;254;48.524;8.926;2022-08-01T05:39:02;3.7;;;3.1;;
537;SDS011;254;48.524;8.926;2022-08-01T05:40:02;2.9;;;2.6;;
537;SDS011;254;48.524;8.926;2022-08-01T05:41:02;3.7;;;2.4;;
537;SDS011;254;48.524;8.926;2022-08-01T05:42:04;3.4;;;2.8;;
537;SDS011;254;48.524;8.926;2022-08-01T05:43:02;4.1;;;2.4;;
537;SDS011;254;48.524;8.926;2022-08-01T05:44:03;2.9;;;2.6;;
537;SDS011;254;48.524;8.926;2022-08-01T05:45:02;3.2;;;2.7;;
537;SDS011;254;48.524;8.926;2022-08-01T05:46:01;3.4;;;2.8;;
537;SDS011;254;48.524;8.926;2022-08-01T05:47:02;2.6;;;2.4;;
537;SDS011;254;48.524;8.926;2022-08-01T05:48:03;2.7;;;2.3;;
537;SDS011;254;48.524;8.926;2022-08-01T05:49:02;3.8;;;2.8;;
537;SDS011;254;48.524;8.926;2022-08-01T05:50:03;5.4;;;2.6;;
537;SDS011;254;48.524;8.926;2022-08-01T05:51:02;4.0;;;2.8;;
537;SDS011;254;48.524;8.926;2022-08-01T05:52:03;3.7;;;2.7;;
537;SDS011;254;48.524;8.926;2022-08-01T05:53:01;3.7;;;2.7;;
537;SDS011;254;48.524;8.926;2022-08-01T05:54:02;3.0;;;2.7;;
537;SDS011;254;48.524;8.926;2022-08-01T05:55:02;5.1;;;2.7;;
537;SDS011;254;48.524;8.926;2022-08-01T05:56:02;4.4;;;2.8;;
537;SDS011;254;48.524;8.926;2022-08-01T05:57:02;3.4;;;2.9;;
537;SDS011;254;48.524;8.926;2022-08-01T05:58:02;3.3;;;2.5;;
537;SDS011;254;48.524;8.926;2022-08-01T05:59:02;2.8;;;2.5;;
537;SDS011;254;48.524;8.926;2022-08-01T06:00:03;3.0;;;2.7;;
537;SDS011;254;48.524;8.926;2022-08-01T06:01:02;2.9;;;2.6;;
537;SDS011;254;48.524;8.926;2022-08-01T06:02:02;3.6;;;2.6;;
537;SDS011;254;48.524;8.926;2022-08-01T06:03:03;3.1;;;2.5;;
537;SDS011;254;48.524;8.926;2022-08-01T06:04:02;2.8;;;2.4;;
537;SDS011;254;48.524;8.926;2022-08-01T06:05:02;3.0;;;2.6;;
537;SDS011;254;48.524;8.926;2022-08-01T06:06:02;4.2;;;2.6;;
537;SDS011;254;48.524;8.926;2022-08-01T06:07:03;3.8;;;2.6;;
537;SDS011;254;48.524;8.926;2022-08-01T06:08:01;4.4;;;2.5;;
537;SDS011;254;48.524;8.926;2022-08-01T06:09:02;4.8;;;2.7;;
537;SDS011;254;48.524;8.926;2022-08-01T06:10:03;4.0;;;2.7;;
537;SDS011;254;48.524;8.926;2022-08-01T06:11:03;2.8;;;2.6;;
537;SDS011;254;48.524;8.926;2022-08-01T06:12:03;5.4;;;3.2;;
537;SDS011;254;48.524;8.926;2022-08-01T06:13:02;4.2;;;3.0;;
537;SDS011;254;48.524;8.926;2022-08-01T06:14:02;5.6;;;3.0;;
537;SDS011;254;48.524;8.926;2022-08-01T06:15:03;3.1;;;2.8;;
537;SDS011;254;48.524;8.926;2022-08-01T06:16:02;3.3;;;3.0;;
537;SDS011;254;48.524;8.926;2022-08-01T06:17:02;3.0;;;2.7;;
537;SDS011;254;48.524;8.926;2022-08-01T06:18:02;3.3;;;2.7;;
537;SDS011;254;48.524;8.926;2022-08-01T06:19:02;4.1;;;2.7;;
537;SDS011;254;48.524;8.926;2022-08-01T06:20:03;3.8;;;2.8;;
537;SDS011;254;48.524;8.926;2022-08-01T06:21:03;3.7;;;3.1;;
537;SDS011;254;48.524;8.926;2022-08-01T06:22:02;3.7;;;2.8;;
537;SDS011;254;48.524;8.926;2022-08-01T06:23:02;2.8;;;2.6;;
537;SDS011;254;48.524;8.926;2022-08-01T06:24:02;4.1;;;2.5;;
537;SDS011;254;48.524;8.926;2022-08-01T06:25:02;3.0;;;2.6;;
537;SDS011;254;48.524;8.926;2022-08-01T06:26:03;3.0;;;2.4;;
537;SDS011;254;48.524;8.926;2022-08-01T06:27:01;3.2;;;2.7;;
537;SDS011;254;48.524;8.926;2022-08-01T06:28:02;2.9;;;2.5;;
537;SDS011;254;48.524;8.926;2022-08-01T06:29:03;2.7;;;2.5;;
537;SDS011;254;48.524;8.926;2022-08-01T06:30:02;4.5;;;3.1;;
537;SDS011;254;48.524;8.926;2022-08-01T06:31:02;3.6;;;2.5;;
537;SDS011;254;48.524;8.926;2022-08-01T06:32:02;2.6;;;2.4;;
537;SDS011;254;48.524;8.926;2022-08-01T06:33:02;2.9;;;2.6;;
537;SDS011;254;48.524;8.926;2022-08-01T06:34:02;3.0;;;2.7;;
537;SDS011;254;48.524;8.926;2022-08-01T06:35:03;4.3;;;2.8;;
537;SDS011;254;48.524;8.926;2022-08-01T06:36:02;4.1;;;2.5;;
537;SDS011;254;48.524;8.926;2022-08-01T06:37:03;5.6;;;2.5;;